sensor_id;sensor_type;location;lat;lon;timestamp;P1;durP1;ratioP1;P2;durP2;ratioP2
20140;SDS011;10231;47.702;9.826;2023-06-14T00:00:38;4.43;;;3.30;;
20140;SDS011;10231;47.702;9.826;2023-06-14T00:03:07;3.10;;;2.80;;
20140;SDS011;10231;47.702;9.826;2023-06-14T00:05:37;3.13;;;2.63;;
20140;SDS011;10231;47.702;9.826;2023-06-14T00:08:08;3.10;;;2.87;;
20140;SDS011;10231;47.702;9.826;2023-06-14T00:10:35;3.20;;;2.80;;
20140;SDS011;10231;47.702;9.826;2023-06-14T00:13:01;3.40;;;3.10;;
20140;SDS011;10231;47.702;9.826;2023-06-14T00:15:33;3.63;;;2.77;;
20140;SDS011;10231;47.702;9.826;2023-06-14T00:17:58;3.40;;;2.70;;
20140;SDS011;10231;47.702;9.826;2023-06-14T00:20:27;3.33;;;3.03;;
20140;SDS011;10231;47.702;9.826;2023-06-14T00:22:54;3.37;;;3.10;;
20140;SDS011;10231;47.702;9.826;2023-06-14T00:25:20;3.43;;;3.13;;
20140;SDS011;10231;47.702;9.826;2023-06-14T00:27:50;4.40;;;2.93;;
20140;SDS011;10231;47.702;9.826;2023-06-14T00:30:16;2.83;;;2.63;;
20140;SDS011;10231;47.702;9.826;2023-06-14T00:32:42;4.33;;;2.97;;
20140;SDS011;10231;47.702;9.826;2023-06-14T00:35:08;3.07;;;2.57;;
20140;SDS011;10231;47.702;9.826;2023-06-14T00:37:34;3.10;;;2.87;;
20140;SDS011;10231;47.702;9.826;2023-06-14T00:40:00;3.50;;;3.17;;
20140;SDS011;10231;47.702;9.826;2023-06-14T00:42:26;3.10;;;2.80;;
20140;SDS011;10231;47.702;9.826;2023-06-14T00:44:52;4.37;;;2.77;;
20140;SDS011;10231;47.702;9.826;2023-06-14T00:47:18;3.17;;;2.97;;
20140;SDS011;10231;47.702;9.826;2023-06-14T00:49:45;3.20;;;3.00;;
20140;SDS011;10231;47.702;9.826;2023-06-14T00:52:21;3.37;;;3.07;;
20140;SDS011;10231;47.702;9.826;2023-06-14T00:54:49;3.27;;;3.07;;
20140;SDS011;10231;47.702;9.826;2023-06-14T00:57:15;4.23;;;2.47;;
20140;SDS011;10231;47.702;9.826;2023-06-14T00:59:45;2.97;;;2.70;;
20140;SDS011;10231;47.702;9.826;2023-06-14T01:02:12;3.70;;;3.40;;
20140;SDS011;10231;47.702;9.826;2023-06-14T01:04:40;3.13;;;2.83;;
20140;SDS011;10231;47.702;9.826;2023-06-14T01:15:26;3.53;;;3.13;;
20140;SDS011;10231;47.702;9.826;2023-06-14T01:17:54;3.30;;;3.00;;
20140;SDS011;10231;47.702;9.826;2023-06-14T01:20:28;3.07;;;2.87;;
20140;SDS011;10231;47.702;9.826;2023-06-14T01:22:55;6.00;;;3.30;;
20140;SDS011;10231;47.702;9.826;2023-06-14T01:25:21;3.67;;;3.10;;
20140;SDS011;10231;47.702;9.826;2023-06-14T01:27:48;4.57;;;3.77;;
20140;SDS011;10231;47.702;9.826;2023-06-14T01:30:15;3.33;;;3.03;;
20140;SDS011;10231;47.702;9.826;2023-06-14T01:32:42;3.40;;;3.10;;
20140;SDS011;10231;47.702;9.826;2023-06-14T01:35:10;3.70;;;3.40;;
20140;SDS011;10231;47.702;9.826;2023-06-14T01:37:36;3.00;;;2.70;;
20140;SDS011;10231;47.702;9.826;2023-06-14T01:40:03;3.90;;;3.43;;
20140;SDS011;10231;47.702;9.826;2023-06-14T01:42:31;3.80;;;3.50;;
20140;SDS011;10231;47.702;9.826;2023-06-14T01:45:01;3.23;;;2.93;;
20140;SDS011;10231;47.702;9.826;2023-06-14T01:47:29;4.60;;;2.87;;
20140;SDS011;10231;47.702;9.826;2023-06-14T01:49:56;3.23;;;3.00;;
20140;SDS011;10231;47.702;9.826;2023-06-14T01:52:21;3.40;;;3.20;;
20140;SDS011;10231;47.702;9.826;2023-06-14T01:54:49;3.03;;;2.83;;
20140;SDS011;10231;47.702;9.826;2023-06-14T01:57:17;5.63;;;3.63;;
20140;SDS011;10231;47.702;9.826;2023-06-14T01:59:43;3.20;;;2.80;;
20140;SDS011;10231;47.702;9.826;2023-06-14T02:02:13;3.27;;;2.97;;
20140;SDS011;10231;47.702;9.826;2023-06-14T02:04:40;2.93;;;2.73;;
20140;SDS011;10231;47.702;9.826;2023-06-14T02:07:05;3.33;;;3.03;;
20140;SDS011;10231;47.702;9.826;2023-06-14T02:09:31;3.43;;;3.13;;
20140;SDS011;10231;47.702;9.826;2023-06-14T02:11:57;3.80;;;3.43;;
20140;SDS011;10231;47.702;9.826;2023-06-14T02:14:23;4.40;;;3.63;;
20140;SDS011;10231;47.702;9.826;2023-06-14T02:16:49;2.93;;;2.53;;
20140;SDS011;10231;47.702;9.826;2023-06-14T02:19:15;3.60;;;3.30;;
20140;SDS011;10231;47.702;9.826;2023-06-14T02:21:41;4.23;;;2.83;;
20140;SDS011;10231;47.702;9.826;2023-06-14T02:24:07;4.10;;;3.30;;
20140;SDS011;10231;47.702;9.826;2023-06-14T02:26:33;3.10;;;2.90;;
20140;SDS011;10231;47.702;9.826;2023-06-14T02:28:59;4.03;;;3.73;;
20140;SDS011;10231;47.702;9.826;2023-06-14T02:31:24;4.13;;;2.93;;
20140;SDS011;10231;47.702;9.826;2023-06-14T02:33:50;3.60;;;3.30;;
20140;SDS011;10231;47.702;9.826;2023-06-14T02:36:16;3.63;;;3.30;;
20140;SDS011;10231;47.702;9.826;2023-06-14T02:38:41;3.67;;;3.37;;
20140;SDS011;10231;47.702;9.826;2023-06-14T02:41:07;3.87;;;3.57;;
20140;SDS011;10231;47.702;9.826;2023-06-14T02:43:33;3.50;;;3.30;;
20140;SDS011;10231;47.702;9.826;2023-06-14T02:45:58;3.93;;;3.57;;
20140;SDS011;10231;47.702;9.826;2023-06-14T02:48:24;3.73;;;3.43;;
20140;SDS011;10231;47.702;9.826;2023-06-14T02:50:49;3.20;;;2.90;;
20140;SDS011;10231;47.702;9.826;2023-06-14T02:53:16;4.33;;;3.67;;
20140;SDS011;10231;47.702;9.826;2023-06-14T02:55:42;3.73;;;3.43;;
20140;SDS011;10231;47.702;9.826;2023-06-14T02:58:07;3.57;;;3.27;;
20140;SDS011;10231;47.702;9.826;2023-06-14T03:00:33;3.70;;;3.40;;
20140;SDS011;10231;47.702;9.826;2023-06-14T03:03:00;6.43;;;3.97;;
20140;SDS011;10231;47.702;9.826;2023-06-14T03:05:26;4.13;;;3.73;;
20140;SDS011;10231;47.702;9.826;2023-06-14T03:07:53;5.83;;;3.43;;
20140;SDS011;10231;47.702;9.826;2023-06-14T03:10:19;3.27;;;3.00;;
20140;SDS011;10231;47.702;9.826;2023-06-14T03:12:45;3.63;;;3.43;;
20140;SDS011;10231;47.702;9.826;2023-06-14T03:15:12;3.70;;;3.40;;
20140;SDS011;10231;47.702;9.826;2023-06-14T03:17:38;3.90;;;3.50;;
20140;SDS011;10231;47.702;9.826;2023-06-14T03:20:04;3.73;;;3.43;;
20140;SDS011;10231;47.702;9.826;2023-06-14T03:22:30;3.73;;;3.43;;
20140;SDS011;10231;47.702;9.826;2023-06-14T03:24:58;3.97;;;3.67;;
20140;SDS011;10231;47.702;9.826;2023-06-14T03:27:24;4.10;;;3.70;;
20140;SDS011;10231;47.702;9.826;2023-06-14T03:29:50;5.23;;;3.90;;
20140;SDS011;10231;47.702;9.826;2023-06-14T03:32:16;4.23;;;3.83;;
20140;SDS011;10231;47.702;9.826;2023-06-14T03:34:41;4.83;;;4.33;;
20140;SDS011;10231;47.702;9.826;2023-06-14T03:37:07;4.10;;;3.60;;
20140;SDS011;10231;47.702;9.826;2023-06-14T03:39:33;3.90;;;3.60;;
20140;SDS011;10231;47.702;9.826;2023-06-14T03:41:58;4.93;;;4.37;;
20140;SDS011;10231;47.702;9.826;2023-06-14T03:44:26;5.80;;;4.27;;
20140;SDS011;10231;47.702;9.826;2023-06-14T03:46:51;3.83;;;3.53;;
20140;SDS011;10231;47.702;9.826;2023-06-14T03:49:18;4.30;;;3.90;;
20140;SDS011;10231;47.702;9.826;2023-06-14T03:51:43;4.23;;;3.60;;
20140;SDS011;10231;47.702;9.826;2023-06-14T03:54:09;3.90;;;3.60;;
20140;SDS011;10231;47.702;9.826;2023-06-14T03:56:35;4.10;;;3.73;;
20140;SDS011;10231;47.702;9.826;2023-06-14T03:59:01;6.37;;;4.77;;
20140;SDS011;10231;47.702;9.826;2023-06-14T04:01:27;4.50;;;4.10;;
20140;SDS011;10231;47.702;9.826;2023-06-14T04:03:55;5.33;;;4.83;;
20140;SDS011;10231;47.702;9.826;2023-06-14T04:06:22;6.60;;;5.57;;
20140;SDS011;10231;47.702;9.826;2023-06-14T04:08:49;4.77;;;4.20;;
20140;SDS011;10231;47.702;9.826;2023-06-14T04:11:16;4.80;;;4.40;;
20140;SDS011;10231;47.702;9.826;2023-06-14T04:13:41;4.13;;;3.73;;
20140;SDS011;10231;47.702;9.826;2023-06-14T04:16:07;5.43;;;4.03;;
20140;SDS011;10231;47.702;9.826;2023-06-14T04:18:32;5.67;;;3.77;;
20140;SDS011;10231;47.702;9.826;2023-06-14T04:20:58;4.07;;;3.77;;
20140;SDS011;10231;47.702;9.826;2023-06-14T04:23:24;5.60;;;3.50;;
20140;SDS011;10231;47.702;9.826;2023-06-14T04:25:49;5.10;;;4.00;;
20140;SDS011;10231;47.702;9.826;2023-06-14T04:28:15;4.00;;;3.70;;
20140;SDS011;10231;47.702;9.826;2023-06-14T04:30:42;4.77;;;3.77;;
20140;SDS011;10231;47.702;9.826;2023-06-14T04:33:08;4.00;;;3.60;;
20140;SDS011;10231;47.702;9.826;2023-06-14T04:35:34;4.33;;;3.80;;
20140;SDS011;10231;47.702;9.826;2023-06-14T04:38:02;5.87;;;3.50;;
20140;SDS011;10231;47.702;9.826;2023-06-14T04:40:35;4.17;;;3.73;;
20140;SDS011;10231;47.702;9.826;2023-06-14T04:43:07;4.43;;;4.03;;
20140;SDS011;10231;47.702;9.826;2023-06-14T04:45:33;4.10;;;3.67;;
20140;SDS011;10231;47.702;9.826;2023-06-14T04:47:59;4.30;;;3.27;;
20140;SDS011;10231;47.702;9.826;2023-06-14T04:50:25;7.47;;;3.80;;
20140;SDS011;10231;47.702;9.826;2023-06-14T04:52:51;4.33;;;3.33;;
20140;SDS011;10231;47.702;9.826;2023-06-14T04:55:18;4.00;;;3.70;;
20140;SDS011;10231;47.702;9.826;2023-06-14T04:57:44;5.60;;;3.83;;
20140;SDS011;10231;47.702;9.826;2023-06-14T05:00:10;4.10;;;3.67;;
20140;SDS011;10231;47.702;9.826;2023-06-14T05:02:36;4.70;;;3.57;;
20140;SDS011;10231;47.702;9.826;2023-06-14T05:05:03;3.27;;;3.03;;
20140;SDS011;10231;47.702;9.826;2023-06-14T05:07:31;4.00;;;3.60;;
20140;SDS011;10231;47.702;9.826;2023-06-14T05:09:58;3.87;;;3.57;;
20140;SDS011;10231;47.702;9.826;2023-06-14T05:12:24;4.30;;;4.00;;
20140;SDS011;10231;47.702;9.826;2023-06-14T05:14:50;4.17;;;3.80;;
20140;SDS011;10231;47.702;9.826;2023-06-14T05:17:16;3.80;;;3.13;;
20140;SDS011;10231;47.702;9.826;2023-06-14T05:19:42;4.47;;;4.07;;
20140;SDS011;10231;47.702;9.826;2023-06-14T05:22:08;3.90;;;3.60;;
20140;SDS011;10231;47.702;9.826;2023-06-14T05:24:33;4.03;;;3.73;;
20140;SDS011;10231;47.702;9.826;2023-06-14T05:26:59;3.80;;;3.50;;
20140;SDS011;10231;47.702;9.826;2023-06-14T05:29:24;4.33;;;3.93;;
20140;SDS011;10231;47.702;9.826;2023-06-14T05:31:50;5.23;;;4.20;;
20140;SDS011;10231;47.702;9.826;2023-06-14T05:34:16;5.33;;;3.90;;
20140;SDS011;10231;47.702;9.826;2023-06-14T05:36:42;4.43;;;4.03;;
20140;SDS011;10231;47.702;9.826;2023-06-14T05:39:07;4.40;;;4.10;;
20140;SDS011;10231;47.702;9.826;2023-06-14T05:41:33;5.80;;;3.60;;
20140;SDS011;10231;47.702;9.826;2023-06-14T05:43:59;5.30;;;4.23;;
20140;SDS011;10231;47.702;9.826;2023-06-14T05:46:25;5.17;;;4.07;;
20140;SDS011;10231;47.702;9.826;2023-06-14T05:48:51;5.17;;;4.17;;
20140;SDS011;10231;47.702;9.826;2023-06-14T05:51:17;4.27;;;3.87;;
20140;SDS011;10231;47.702;9.826;2023-06-14T05:53:46;4.10;;;3.70;;
20140;SDS011;10231;47.702;9.826;2023-06-14T05:56:12;4.73;;;4.03;;
20140;SDS011;10231;47.702;9.826;2023-06-14T05:58:38;4.40;;;3.60;;
20140;SDS011;10231;47.702;9.826;2023-06-14T06:01:04;3.60;;;3.30;;
20140;SDS011;10231;47.702;9.826;2023-06-14T06:03:30;4.03;;;3.60;;
20140;SDS011;10231;47.702;9.826;2023-06-14T06:05:55;5.17;;;3.70;;
20140;SDS011;10231;47.702;9.826;2023-06-14T06:08:21;5.27;;;3.97;;
20140;SDS011;10231;47.702;9.826;2023-06-14T06:10:46;4.27;;;3.90;;
20140;SDS011;10231;47.702;9.826;2023-06-14T06:13:12;4.00;;;3.70;;
20140;SDS011;10231;47.702;9.826;2023-06-14T06:15:38;3.73;;;3.40;;
20140;SDS011;10231;47.702;9.826;2023-06-14T06:18:03;3.60;;;3.30;;
20140;SDS011;10231;47.702;9.826;2023-06-14T06:20:29;4.17;;;3.87;;
20140;SDS011;10231;47.702;9.826;2023-06-14T06:22:59;5.17;;;3.50;;
20140;SDS011;10231;47.702;9.826;2023-06-14T06:25:25;4.93;;;3.33;;
20140;SDS011;10231;47.702;9.826;2023-06-14T06:27:52;4.03;;;3.53;;
20140;SDS011;10231;47.702;9.826;2023-06-14T06:30:19;4.33;;;4.03;;
20140;SDS011;10231;47.702;9.826;2023-06-14T06:32:45;4.17;;;3.77;;
20140;SDS011;10231;47.702;9.826;2023-06-14T06:35:11;5.83;;;3.63;;
20140;SDS011;10231;47.702;9.826;2023-06-14T06:37:37;4.63;;;3.07;;
20140;SDS011;10231;47.702;9.826;2023-06-14T06:40:04;4.47;;;3.13;;
20140;SDS011;10231;47.702;9.826;2023-06-14T06:42:31;4.13;;;3.27;;
20140;SDS011;10231;47.702;9.826;2023-06-14T06:44:57;5.23;;;3.10;;
20140;SDS011;10231;47.702;9.826;2023-06-14T06:47:23;3.40;;;3.10;;
20140;SDS011;10231;47.702;9.826;2023-06-14T06:49:49;4.40;;;3.73;;
20140;SDS011;10231;47.702;9.826;2023-06-14T06:52:15;4.10;;;3.57;;
20140;SDS011;10231;47.702;9.826;2023-06-14T06:54:41;3.40;;;3.10;;
20140;SDS011;10231;47.702;9.826;2023-06-14T06:57:06;3.37;;;3.07;;
20140;SDS011;10231;47.702;9.826;2023-06-14T06:59:32;3.43;;;3.13;;
20140;SDS011;10231;47.702;9.826;2023-06-14T07:01:58;3.20;;;2.80;;
20140;SDS011;10231;47.702;9.826;2023-06-14T07:04:24;4.40;;;2.83;;
20140;SDS011;10231;47.702;9.826;2023-06-14T07:06:50;4.13;;;3.23;;
20140;SDS011;10231;47.702;9.826;2023-06-14T07:09:15;3.90;;;2.97;;
20140;SDS011;10231;47.702;9.826;2023-06-14T07:11:42;3.40;;;3.10;;
20140;SDS011;10231;47.702;9.826;2023-06-14T07:14:08;3.77;;;2.57;;
20140;SDS011;10231;47.702;9.826;2023-06-14T07:16:34;4.40;;;2.77;;
20140;SDS011;10231;47.702;9.826;2023-06-14T07:19:01;4.13;;;2.70;;
20140;SDS011;10231;47.702;9.826;2023-06-14T07:21:27;2.60;;;2.50;;
20140;SDS011;10231;47.702;9.826;2023-06-14T07:23:53;2.83;;;2.63;;
20140;SDS011;10231;47.702;9.826;2023-06-14T07:26:19;7.13;;;2.90;;
20140;SDS011;10231;47.702;9.826;2023-06-14T07:28:45;2.87;;;2.60;;
20140;SDS011;10231;47.702;9.826;2023-06-14T07:31:12;2.77;;;2.43;;
20140;SDS011;10231;47.702;9.826;2023-06-14T07:33:38;2.97;;;2.70;;
20140;SDS011;10231;47.702;9.826;2023-06-14T07:36:04;2.70;;;2.50;;
20140;SDS011;10231;47.702;9.826;2023-06-14T07:38:30;3.37;;;3.07;;
20140;SDS011;10231;47.702;9.826;2023-06-14T07:40:56;2.40;;;2.30;;
20140;SDS011;10231;47.702;9.826;2023-06-14T07:43:21;5.87;;;3.13;;
20140;SDS011;10231;47.702;9.826;2023-06-14T07:45:47;5.97;;;2.70;;
20140;SDS011;10231;47.702;9.826;2023-06-14T07:48:12;3.10;;;2.90;;
20140;SDS011;10231;47.702;9.826;2023-06-14T07:50:38;3.77;;;2.60;;
20140;SDS011;10231;47.702;9.826;2023-06-14T07:53:03;5.07;;;3.80;;
20140;SDS011;10231;47.702;9.826;2023-06-14T07:55:29;2.93;;;2.73;;
20140;SDS011;10231;47.702;9.826;2023-06-14T07:57:57;2.53;;;2.33;;
20140;SDS011;10231;47.702;9.826;2023-06-14T08:00:23;2.53;;;2.33;;
20140;SDS011;10231;47.702;9.826;2023-06-14T08:02:49;3.93;;;2.50;;
20140;SDS011;10231;47.702;9.826;2023-06-14T08:05:17;3.00;;;2.70;;
20140;SDS011;10231;47.702;9.826;2023-06-14T08:07:42;3.50;;;2.90;;
20140;SDS011;10231;47.702;9.826;2023-06-14T08:10:08;5.00;;;2.97;;
20140;SDS011;10231;47.702;9.826;2023-06-14T08:12:34;3.43;;;3.13;;
20140;SDS011;10231;47.702;9.826;2023-06-14T08:15:00;3.60;;;2.80;;
20140;SDS011;10231;47.702;9.826;2023-06-14T08:17:26;2.77;;;2.57;;
20140;SDS011;10231;47.702;9.826;2023-06-14T08:19:51;2.97;;;2.40;;
20140;SDS011;10231;47.702;9.826;2023-06-14T08:22:19;3.03;;;2.80;;
20140;SDS011;10231;47.702;9.826;2023-06-14T08:24:46;4.80;;;2.70;;
20140;SDS011;10231;47.702;9.826;2023-06-14T08:27:12;2.80;;;2.60;;
20140;SDS011;10231;47.702;9.826;2023-06-14T08:29:38;4.60;;;2.80;;
20140;SDS011;10231;47.702;9.826;2023-06-14T08:32:05;4.27;;;2.77;;
20140;SDS011;10231;47.702;9.826;2023-06-14T08:34:31;3.13;;;2.83;;
20140;SDS011;10231;47.702;9.826;2023-06-14T08:36:57;3.00;;;2.63;;
20140;SDS011;10231;47.702;9.826;2023-06-14T08:39:22;3.47;;;3.00;;
20140;SDS011;10231;47.702;9.826;2023-06-14T08:41:48;2.77;;;2.57;;
20140;SDS011;10231;47.702;9.826;2023-06-14T08:44:16;4.37;;;2.97;;
20140;SDS011;10231;47.702;9.826;2023-06-14T08:46:42;4.20;;;2.60;;
20140;SDS011;10231;47.702;9.826;2023-06-14T08:49:08;2.80;;;2.60;;
20140;SDS011;10231;47.702;9.826;2023-06-14T08:51:36;4.23;;;3.03;;
20140;SDS011;10231;47.702;9.826;2023-06-14T08:54:02;3.13;;;2.77;;
20140;SDS011;10231;47.702;9.826;2023-06-14T08:56:29;3.40;;;3.10;;
20140;SDS011;10231;47.702;9.826;2023-06-14T08:58:59;4.47;;;3.27;;
20140;SDS011;10231;47.702;9.826;2023-06-14T09:01:27;3.60;;;2.70;;
20140;SDS011;10231;47.702;9.826;2023-06-14T09:03:53;3.20;;;2.83;;
20140;SDS011;10231;47.702;9.826;2023-06-14T09:06:22;4.30;;;3.47;;
20140;SDS011;10231;47.702;9.826;2023-06-14T09:08:49;2.73;;;2.53;;
20140;SDS011;10231;47.702;9.826;2023-06-14T09:11:16;3.07;;;2.83;;
20140;SDS011;10231;47.702;9.826;2023-06-14T09:13:44;4.90;;;3.50;;
20140;SDS011;10231;47.702;9.826;2023-06-14T09:16:11;8.17;;;4.87;;
20140;SDS011;10231;47.702;9.826;2023-06-14T09:18:38;3.53;;;3.20;;
20140;SDS011;10231;47.702;9.826;2023-06-14T09:21:13;3.67;;;3.37;;
20140;SDS011;10231;47.702;9.826;2023-06-14T09:23:43;4.70;;;3.13;;
20140;SDS011;10231;47.702;9.826;2023-06-14T09:26:10;6.77;;;3.13;;
20140;SDS011;10231;47.702;9.826;2023-06-14T09:28:42;3.50;;;3.20;;
20140;SDS011;10231;47.702;9.826;2023-06-14T09:31:10;3.63;;;3.00;;
20140;SDS011;10231;47.702;9.826;2023-06-14T09:33:36;8.87;;;3.70;;
20140;SDS011;10231;47.702;9.826;2023-06-14T09:36:02;3.80;;;3.40;;
20140;SDS011;10231;47.702;9.826;2023-06-14T09:38:29;5.43;;;3.10;;
20140;SDS011;10231;47.702;9.826;2023-06-14T09:40:56;2.90;;;2.60;;
20140;SDS011;10231;47.702;9.826;2023-06-14T09:43:23;3.33;;;3.03;;
20140;SDS011;10231;47.702;9.826;2023-06-14T09:45:49;4.50;;;3.20;;
20140;SDS011;10231;47.702;9.826;2023-06-14T09:48:16;3.73;;;3.23;;
20140;SDS011;10231;47.702;9.826;2023-06-14T09:50:46;3.53;;;3.00;;
20140;SDS011;10231;47.702;9.826;2023-06-14T09:53:13;3.57;;;3.03;;
20140;SDS011;10231;47.702;9.826;2023-06-14T09:55:41;3.13;;;2.90;;
20140;SDS011;10231;47.702;9.826;2023-06-14T09:58:08;4.43;;;3.23;;
20140;SDS011;10231;47.702;9.826;2023-06-14T10:00:35;9.37;;;4.00;;
20140;SDS011;10231;47.702;9.826;2023-06-14T10:03:12;3.43;;;3.10;;
20140;SDS011;10231;47.702;9.826;2023-06-14T10:05:41;3.73;;;3.00;;
20140;SDS011;10231;47.702;9.826;2023-06-14T10:08:10;3.53;;;3.17;;
20140;SDS011;10231;47.702;9.826;2023-06-14T10:10:40;4.77;;;3.07;;
20140;SDS011;10231;47.702;9.826;2023-06-14T10:13:07;3.07;;;2.80;;
20140;SDS011;10231;47.702;9.826;2023-06-14T10:21:21;3.07;;;2.83;;
20140;SDS011;10231;47.702;9.826;2023-06-14T10:23:53;5.20;;;2.93;;
20140;SDS011;10231;47.702;9.826;2023-06-14T10:26:22;3.20;;;3.00;;
20140;SDS011;10231;47.702;9.826;2023-06-14T10:29:01;3.87;;;3.47;;
20140;SDS011;10231;47.702;9.826;2023-06-14T10:31:40;5.23;;;2.83;;
20140;SDS011;10231;47.702;9.826;2023-06-14T10:34:07;5.10;;;2.93;;
20140;SDS011;10231;47.702;9.826;2023-06-14T10:36:33;3.50;;;3.20;;
20140;SDS011;10231;47.702;9.826;2023-06-14T10:39:18;3.10;;;2.90;;
20140;SDS011;10231;47.702;9.826;2023-06-14T10:41:52;2.93;;;2.70;;
20140;SDS011;10231;47.702;9.826;2023-06-14T10:46:53;4.97;;;2.93;;
20140;SDS011;10231;47.702;9.826;2023-06-14T10:49:19;4.10;;;3.53;;
20140;SDS011;10231;47.702;9.826;2023-06-14T10:51:51;2.83;;;2.73;;
20140;SDS011;10231;47.702;9.826;2023-06-14T10:54:20;3.70;;;3.40;;
20140;SDS011;10231;47.702;9.826;2023-06-14T10:56:49;3.63;;;3.23;;
20140;SDS011;10231;47.702;9.826;2023-06-14T10:59:16;4.30;;;3.50;;
20140;SDS011;10231;47.702;9.826;2023-06-14T11:04:49;3.97;;;3.47;;
20140;SDS011;10231;47.702;9.826;2023-06-14T11:10:22;3.97;;;3.00;;
20140;SDS011;10231;47.702;9.826;2023-06-14T11:12:54;3.60;;;3.30;;
20140;SDS011;10231;47.702;9.826;2023-06-14T11:15:27;5.97;;;3.57;;
20140;SDS011;10231;47.702;9.826;2023-06-14T11:17:53;4.80;;;3.40;;
20140;SDS011;10231;47.702;9.826;2023-06-14T11:20:23;4.10;;;3.00;;
20140;SDS011;10231;47.702;9.826;2023-06-14T11:22:50;3.27;;;2.97;;
20140;SDS011;10231;47.702;9.826;2023-06-14T11:25:17;3.50;;;3.20;;
20140;SDS011;10231;47.702;9.826;2023-06-14T11:27:43;3.63;;;3.07;;
20140;SDS011;10231;47.702;9.826;2023-06-14T11:30:10;4.97;;;3.00;;
20140;SDS011;10231;47.702;9.826;2023-06-14T11:32:36;3.03;;;2.83;;
20140;SDS011;10231;47.702;9.826;2023-06-14T11:35:03;3.80;;;2.90;;
20140;SDS011;10231;47.702;9.826;2023-06-14T11:37:30;4.13;;;3.83;;
20140;SDS011;10231;47.702;9.826;2023-06-14T11:39:56;4.07;;;2.90;;
20140;SDS011;10231;47.702;9.826;2023-06-14T11:42:22;4.37;;;3.37;;
20140;SDS011;10231;47.702;9.826;2023-06-14T11:44:49;3.63;;;3.00;;
20140;SDS011;10231;47.702;9.826;2023-06-14T11:47:15;3.20;;;3.00;;
20140;SDS011;10231;47.702;9.826;2023-06-14T11:49:41;3.77;;;3.20;;
20140;SDS011;10231;47.702;9.826;2023-06-14T11:52:07;4.57;;;3.50;;
20140;SDS011;10231;47.702;9.826;2023-06-14T11:54:33;3.43;;;3.10;;
20140;SDS011;10231;47.702;9.826;2023-06-14T11:56:58;3.07;;;2.87;;
20140;SDS011;10231;47.702;9.826;2023-06-14T11:59:24;3.43;;;3.23;;
20140;SDS011;10231;47.702;9.826;2023-06-14T12:01:50;3.60;;;3.20;;
20140;SDS011;10231;47.702;9.826;2023-06-14T12:04:28;3.63;;;3.23;;
20140;SDS011;10231;47.702;9.826;2023-06-14T12:06:54;2.97;;;2.67;;
20140;SDS011;10231;47.702;9.826;2023-06-14T12:09:20;3.13;;;2.93;;
20140;SDS011;10231;47.702;9.826;2023-06-14T12:11:51;2.93;;;2.63;;
20140;SDS011;10231;47.702;9.826;2023-06-14T12:14:30;4.07;;;2.90;;
20140;SDS011;10231;47.702;9.826;2023-06-14T12:17:03;3.07;;;2.87;;
20140;SDS011;10231;47.702;9.826;2023-06-14T12:19:33;3.13;;;2.87;;
20140;SDS011;10231;47.702;9.826;2023-06-14T12:22:07;3.87;;;3.00;;
20140;SDS011;10231;47.702;9.826;2023-06-14T12:24:35;3.17;;;2.97;;
20140;SDS011;10231;47.702;9.826;2023-06-14T12:27:01;4.03;;;3.47;;
20140;SDS011;10231;47.702;9.826;2023-06-14T12:29:30;3.63;;;3.00;;
20140;SDS011;10231;47.702;9.826;2023-06-14T12:31:56;3.70;;;2.90;;
20140;SDS011;10231;47.702;9.826;2023-06-14T12:34:25;3.97;;;3.63;;
20140;SDS011;10231;47.702;9.826;2023-06-14T12:36:52;3.60;;;3.17;;
20140;SDS011;10231;47.702;9.826;2023-06-14T12:39:20;3.40;;;2.87;;
20140;SDS011;10231;47.702;9.826;2023-06-14T12:41:46;3.50;;;3.03;;
20140;SDS011;10231;47.702;9.826;2023-06-14T12:44:13;3.83;;;2.73;;
20140;SDS011;10231;47.702;9.826;2023-06-14T12:46:39;3.00;;;2.80;;
20140;SDS011;10231;47.702;9.826;2023-06-14T12:49:10;4.07;;;2.80;;
20140;SDS011;10231;47.702;9.826;2023-06-14T12:51:37;3.80;;;2.80;;
20140;SDS011;10231;47.702;9.826;2023-06-14T12:54:03;3.30;;;3.00;;
20140;SDS011;10231;47.702;9.826;2023-06-14T12:56:29;3.40;;;3.10;;
20140;SDS011;10231;47.702;9.826;2023-06-14T12:58:54;3.00;;;2.90;;
20140;SDS011;10231;47.702;9.826;2023-06-14T13:01:20;3.83;;;2.87;;
20140;SDS011;10231;47.702;9.826;2023-06-14T13:03:46;3.00;;;2.80;;
20140;SDS011;10231;47.702;9.826;2023-06-14T13:06:12;3.00;;;2.80;;
20140;SDS011;10231;47.702;9.826;2023-06-14T13:08:38;3.20;;;2.80;;
20140;SDS011;10231;47.702;9.826;2023-06-14T13:11:03;3.13;;;2.53;;
20140;SDS011;10231;47.702;9.826;2023-06-14T13:13:29;3.03;;;2.83;;
20140;SDS011;10231;47.702;9.826;2023-06-14T13:15:54;3.00;;;2.80;;
20140;SDS011;10231;47.702;9.826;2023-06-14T13:18:20;3.23;;;2.93;;
20140;SDS011;10231;47.702;9.826;2023-06-14T13:20:46;2.87;;;2.60;;
20140;SDS011;10231;47.702;9.826;2023-06-14T13:23:12;2.90;;;2.70;;
20140;SDS011;10231;47.702;9.826;2023-06-14T13:25:38;3.67;;;2.60;;
20140;SDS011;10231;47.702;9.826;2023-06-14T13:28:04;2.70;;;2.50;;
20140;SDS011;10231;47.702;9.826;2023-06-14T13:30:31;2.93;;;2.67;;
20140;SDS011;10231;47.702;9.826;2023-06-14T13:32:57;2.67;;;2.43;;
20140;SDS011;10231;47.702;9.826;2023-06-14T13:35:24;4.13;;;2.53;;
20140;SDS011;10231;47.702;9.826;2023-06-14T13:37:50;2.97;;;2.67;;
20140;SDS011;10231;47.702;9.826;2023-06-14T13:40:16;2.87;;;2.57;;
20140;SDS011;10231;47.702;9.826;2023-06-14T13:42:42;2.63;;;2.43;;
20140;SDS011;10231;47.702;9.826;2023-06-14T13:45:08;4.10;;;2.80;;
20140;SDS011;10231;47.702;9.826;2023-06-14T13:47:35;2.80;;;2.60;;
20140;SDS011;10231;47.702;9.826;2023-06-14T13:50:01;3.47;;;2.83;;
20140;SDS011;10231;47.702;9.826;2023-06-14T13:52:28;5.83;;;2.80;;
20140;SDS011;10231;47.702;9.826;2023-06-14T13:54:53;4.03;;;2.40;;
20140;SDS011;10231;47.702;9.826;2023-06-14T13:57:19;2.70;;;2.50;;
20140;SDS011;10231;47.702;9.826;2023-06-14T13:59:44;2.83;;;2.27;;
20140;SDS011;10231;47.702;9.826;2023-06-14T14:02:10;4.43;;;2.40;;
20140;SDS011;10231;47.702;9.826;2023-06-14T14:04:37;2.47;;;2.27;;
20140;SDS011;10231;47.702;9.826;2023-06-14T14:07:03;5.93;;;3.20;;
20140;SDS011;10231;47.702;9.826;2023-06-14T14:09:30;2.87;;;2.60;;
20140;SDS011;10231;47.702;9.826;2023-06-14T14:11:59;2.93;;;2.40;;
20140;SDS011;10231;47.702;9.826;2023-06-14T14:14:27;2.70;;;2.47;;
20140;SDS011;10231;47.702;9.826;2023-06-14T14:16:52;2.33;;;2.23;;
20140;SDS011;10231;47.702;9.826;2023-06-14T14:19:20;3.07;;;2.30;;
20140;SDS011;10231;47.702;9.826;2023-06-14T14:21:46;2.57;;;2.37;;
20140;SDS011;10231;47.702;9.826;2023-06-14T14:24:12;3.77;;;2.83;;
20140;SDS011;10231;47.702;9.826;2023-06-14T14:26:38;2.80;;;2.60;;
20140;SDS011;10231;47.702;9.826;2023-06-14T14:29:04;2.93;;;2.73;;
20140;SDS011;10231;47.702;9.826;2023-06-14T14:31:29;2.93;;;2.73;;
20140;SDS011;10231;47.702;9.826;2023-06-14T14:33:55;2.47;;;2.30;;
20140;SDS011;10231;47.702;9.826;2023-06-14T14:36:21;2.40;;;2.30;;
20140;SDS011;10231;47.702;9.826;2023-06-14T14:38:47;2.60;;;2.40;;
20140;SDS011;10231;47.702;9.826;2023-06-14T14:41:12;2.93;;;2.27;;
20140;SDS011;10231;47.702;9.826;2023-06-14T14:43:38;2.70;;;2.50;;
20140;SDS011;10231;47.702;9.826;2023-06-14T14:46:04;4.27;;;2.43;;
20140;SDS011;10231;47.702;9.826;2023-06-14T14:48:30;2.33;;;2.23;;
20140;SDS011;10231;47.702;9.826;2023-06-14T14:50:55;3.10;;;2.80;;
20140;SDS011;10231;47.702;9.826;2023-06-14T14:53:21;3.13;;;2.30;;
20140;SDS011;10231;47.702;9.826;2023-06-14T14:55:47;3.20;;;2.90;;
20140;SDS011;10231;47.702;9.826;2023-06-14T14:58:12;2.50;;;2.30;;
20140;SDS011;10231;47.702;9.826;2023-06-14T15:00:41;4.70;;;2.67;;
20140;SDS011;10231;47.702;9.826;2023-06-14T15:03:07;3.97;;;2.73;;
20140;SDS011;10231;47.702;9.826;2023-06-14T15:05:33;3.13;;;2.83;;
20140;SDS011;10231;47.702;9.826;2023-06-14T15:07:58;2.83;;;2.63;;